sensor_id;sensor_type;location;lat;lon;timestamp;temperature;humidity
20143;DHT22;10509;46.476;7.134;2023-02-21T07:19:46;4.10;99.90
20143;DHT22;10509;46.476;7.134;2023-02-21T07:22:12;3.80;99.90
20143;DHT22;10509;46.476;7.134;2023-02-21T07:24:37;3.60;99.90
20143;DHT22;10509;46.476;7.134;2023-02-21T07:27:03;3.60;99.90
20143;DHT22;10509;46.476;7.134;2023-02-21T07:29:29;3.70;99.90
20143;DHT22;10509;46.476;7.134;2023-02-21T07:31:55;3.70;99.90
20143;DHT22;10509;46.476;7.134;2023-02-21T07:34:20;3.60;99.90
20143;DHT22;10509;46.476;7.134;2023-02-21T07:36:47;3.30;99.90
20143;DHT22;10509;46.476;7.134;2023-02-21T07:39:13;3.30;99.90
20143;DHT22;10509;46.476;7.134;2023-02-21T07:41:39;3.20;99.90
20143;DHT22;10509;46.476;7.134;2023-02-21T07:44:05;3.10;99.90
20143;DHT22;10509;46.476;7.134;2023-02-21T07:46:32;3.60;99.90
20143;DHT22;10509;46.476;7.134;2023-02-21T07:48:59;5.90;99.90
20143;DHT22;10509;46.476;7.134;2023-02-21T07:51:29;8.60;99.90
20143;DHT22;10509;46.476;7.134;2023-02-21T07:53:55;10.60;99.90
20143;DHT22;10509;46.476;7.134;2023-02-21T07:56:22;11.00;99.90
20143;DHT22;10509;46.476;7.134;2023-02-21T07:58:47;12.70;99.90
20143;DHT22;10509;46.476;7.134;2023-02-21T08:01:14;13.90;99.90
20143;DHT22;10509;46.476;7.134;2023-02-21T08:03:40;15.00;99.90
20143;DHT22;10509;46.476;7.134;2023-02-21T08:06:07;14.40;99.90
20143;DHT22;10509;46.476;7.134;2023-02-21T08:08:34;14.60;99.90
20143;DHT22;10509;46.476;7.134;2023-02-21T08:11:00;15.60;99.90
20143;DHT22;10509;46.476;7.134;2023-02-21T08:13:25;15.80;99.90
20143;DHT22;10509;46.476;7.134;2023-02-21T08:15:51;16.20;99.90
20143;DHT22;10509;46.476;7.134;2023-02-21T08:18:19;16.00;99.90
20143;DHT22;10509;46.476;7.134;2023-02-21T08:20:51;16.70;99.90
20143;DHT22;10509;46.476;7.134;2023-02-21T08:23:17;18.20;99.90
20143;DHT22;10509;46.476;7.134;2023-02-21T08:25:44;18.60;99.90
20143;DHT22;10509;46.476;7.134;2023-02-21T08:28:10;17.60;99.90
20143;DHT22;10509;46.476;7.134;2023-02-21T08:30:35;17.60;99.90
20143;DHT22;10509;46.476;7.134;2023-02-21T08:33:01;17.20;99.90
20143;DHT22;10509;46.476;7.134;2023-02-21T08:35:27;18.60;99.90
20143;DHT22;10509;46.476;7.134;2023-02-21T08:37:52;20.00;99.90
20143;DHT22;10509;46.476;7.134;2023-02-21T08:40:22;21.20;99.90
20143;DHT22;10509;46.476;7.134;2023-02-21T08:42:50;22.30;99.90
20143;DHT22;10509;46.476;7.134;2023-02-21T08:45:21;22.50;99.50
20143;DHT22;10509;46.476;7.134;2023-02-21T08:47:48;22.80;98.50
20143;DHT22;10509;46.476;7.134;2023-02-21T08:50:14;23.20;97.70
20143;DHT22;10509;46.476;7.134;2023-02-21T08:52:39;23.70;97.10
20143;DHT22;10509;46.476;7.134;2023-02-21T08:55:06;23.90;96.00
20143;DHT22;10509;46.476;7.134;2023-02-21T08:57:32;23.30;96.00
20143;DHT22;10509;46.476;7.134;2023-02-21T08:59:59;22.90;96.20
20143;DHT22;10509;46.476;7.134;2023-02-21T09:02:25;22.80;96.10
20143;DHT22;10509;46.476;7.134;2023-02-21T09:04:52;22.60;96.00
20143;DHT22;10509;46.476;7.134;2023-02-21T09:07:20;22.20;96.40
20143;DHT22;10509;46.476;7.134;2023-02-21T09:09:46;22.40;96.20
20143;DHT22;10509;46.476;7.134;2023-02-21T09:12:12;22.60;96.10
20143;DHT22;10509;46.476;7.134;2023-02-21T09:14:39;22.80;95.80
20143;DHT22;10509;46.476;7.134;2023-02-21T09:17:10;23.10;95.40
20143;DHT22;10509;46.476;7.134;2023-02-21T09:19:36;23.50;95.30
20143;DHT22;10509;46.476;7.134;2023-02-21T09:22:01;23.90;94.70
20143;DHT22;10509;46.476;7.134;2023-02-21T09:24:29;23.70;94.60
20143;DHT22;10509;46.476;7.134;2023-02-21T09:26:56;23.60;94.50
20143;DHT22;10509;46.476;7.134;2023-02-21T09:29:30;23.60;94.40
20143;DHT22;10509;46.476;7.134;2023-02-21T09:31:56;23.80;94.40
20143;DHT22;10509;46.476;7.134;2023-02-21T09:34:22;23.50;94.70
20143;DHT22;10509;46.476;7.134;2023-02-21T09:36:48;23.40;94.70
20143;DHT22;10509;46.476;7.134;2023-02-21T09:39:20;23.30;94.90
20143;DHT22;10509;46.476;7.134;2023-02-21T09:41:46;23.60;94.70
20143;DHT22;10509;46.476;7.134;2023-02-21T09:44:21;24.00;94.30
20143;DHT22;10509;46.476;7.134;2023-02-21T09:46:55;24.60;94.10
20143;DHT22;10509;46.476;7.134;2023-02-21T09:49:27;25.20;93.70
20143;DHT22;10509;46.476;7.134;2023-02-21T09:51:55;25.70;92.10
20143;DHT22;10509;46.476;7.134;2023-02-21T09:54:31;26.10;90.90
20143;DHT22;10509;46.476;7.134;2023-02-21T09:56:59;26.30;90.70
20143;DHT22;10509;46.476;7.134;2023-02-21T09:59:25;26.40;90.40
20143;DHT22;10509;46.476;7.134;2023-02-21T10:04:54;26.20;90.60
20143;DHT22;10509;46.476;7.134;2023-02-21T10:07:50;25.90;90.80
20143;DHT22;10509;46.476;7.134;2023-02-21T10:10:52;25.90;90.60
20143;DHT22;10509;46.476;7.134;2023-02-21T10:16:12;24.40;91.50
20143;DHT22;10509;46.476;7.134;2023-02-21T10:21:39;25.00;91.10
20143;DHT22;10509;46.476;7.134;2023-02-21T10:24:12;25.40;90.90
20143;DHT22;10509;46.476;7.134;2023-02-21T10:26:43;25.90;91.00
20143;DHT22;10509;46.476;7.134;2023-02-21T10:32:04;26.60;90.20
20143;DHT22;10509;46.476;7.134;2023-02-21T10:34:32;26.50;90.00
20143;DHT22;10509;46.476;7.134;2023-02-21T10:37:05;26.10;90.20
20143;DHT22;10509;46.476;7.134;2023-02-21T10:39:42;26.30;90.30
20143;DHT22;10509;46.476;7.134;2023-02-21T10:42:16;26.30;90.40
20143;DHT22;10509;46.476;7.134;2023-02-21T10:44:43;26.10;90.40
20143;DHT22;10509;46.476;7.134;2023-02-21T10:47:21;25.80;90.80
20143;DHT22;10509;46.476;7.134;2023-02-21T10:49:55;25.80;90.70
20143;DHT22;10509;46.476;7.134;2023-02-21T10:52:23;26.10;90.60
20143;DHT22;10509;46.476;7.134;2023-02-21T10:55:03;26.30;90.40
20143;DHT22;10509;46.476;7.134;2023-02-21T10:57:31;25.60;90.60
20143;DHT22;10509;46.476;7.134;2023-02-21T10:59:58;25.10;90.60
20143;DHT22;10509;46.476;7.134;2023-02-21T11:04:54;25.60;90.70
20143;DHT22;10509;46.476;7.134;2023-02-21T11:07:21;25.80;90.40
20143;DHT22;10509;46.476;7.134;2023-02-21T11:09:49;25.30;90.80
20143;DHT22;10509;46.476;7.134;2023-02-21T11:14:43;25.40;91.00
20143;DHT22;10509;46.476;7.134;2023-02-21T11:17:18;25.60;90.90
20143;DHT22;10509;46.476;7.134;2023-02-21T11:19:55;25.70;91.20
20143;DHT22;10509;46.476;7.134;2023-02-21T11:22:38;25.50;91.10
20143;DHT22;10509;46.476;7.134;2023-02-21T11:25:28;25.40;91.30
20143;DHT22;10509;46.476;7.134;2023-02-21T11:30:49;25.10;91.60
20143;DHT22;10509;46.476;7.134;2023-02-21T11:33:22;25.10;90.90
20143;DHT22;10509;46.476;7.134;2023-02-21T11:35:53;24.50;91.30
20143;DHT22;10509;46.476;7.134;2023-02-21T11:41:22;24.90;90.90
20143;DHT22;10509;46.476;7.134;2023-02-21T11:43:52;24.80;90.80
20143;DHT22;10509;46.476;7.134;2023-02-21T11:49:16;24.80;90.40
20143;DHT22;10509;46.476;7.134;2023-02-21T11:51:59;24.30;90.80
20143;DHT22;10509;46.476;7.134;2023-02-21T11:54:27;24.40;90.00
20143;DHT22;10509;46.476;7.134;2023-02-21T11:59:45;24.60;90.30
20143;DHT22;10509;46.476;7.134;2023-02-21T12:05:12;24.30;89.90
20143;DHT22;10509;46.476;7.134;2023-02-21T12:18:37;23.50;90.50
20143;DHT22;10509;46.476;7.134;2023-02-21T12:21:22;23.50;90.60
20143;DHT22;10509;46.476;7.134;2023-02-21T12:29:06;22.70;91.40
20143;DHT22;10509;46.476;7.134;2023-02-21T12:37:00;22.20;92.50
20143;DHT22;10509;46.476;7.134;2023-02-21T12:39:47;21.90;93.00
20143;DHT22;10509;46.476;7.134;2023-02-21T12:47:57;20.60;94.40
20143;DHT22;10509;46.476;7.134;2023-02-21T12:50:43;20.40;94.70
20143;DHT22;10509;46.476;7.134;2023-02-21T12:53:21;20.30;94.90
20143;DHT22;10509;46.476;7.134;2023-02-21T12:55:58;20.00;95.00
20143;DHT22;10509;46.476;7.134;2023-02-21T12:58:34;19.40;95.30
20143;DHT22;10509;46.476;7.134;2023-02-21T13:01:17;19.20;95.90
20143;DHT22;10509;46.476;7.134;2023-02-21T13:04:19;18.70;96.40
20143;DHT22;10509;46.476;7.134;2023-02-21T13:06:53;18.60;96.90
20143;DHT22;10509;46.476;7.134;2023-02-21T13:09:28;18.40;96.80
20143;DHT22;10509;46.476;7.134;2023-02-21T13:12:10;17.80;97.40
20143;DHT22;10509;46.476;7.134;2023-02-21T13:14:54;17.30;98.20
20143;DHT22;10509;46.476;7.134;2023-02-21T13:17:21;17.10;98.40
20143;DHT22;10509;46.476;7.134;2023-02-21T13:19:49;16.90;98.60
20143;DHT22;10509;46.476;7.134;2023-02-21T13:22:35;16.70;98.80
20143;DHT22;10509;46.476;7.134;2023-02-21T13:28:00;16.40;99.60
20143;DHT22;10509;46.476;7.134;2023-02-21T13:30:41;16.50;99.50
20143;DHT22;10509;46.476;7.134;2023-02-21T13:35:57;16.50;99.90
20143;DHT22;10509;46.476;7.134;2023-02-21T13:38:26;16.60;99.80
20143;DHT22;10509;46.476;7.134;2023-02-21T13:41:06;16.60;99.80
20143;DHT22;10509;46.476;7.134;2023-02-21T13:43:36;16.60;99.80
20143;DHT22;10509;46.476;7.134;2023-02-21T13:57:41;16.00;99.90
20143;DHT22;10509;46.476;7.134;2023-02-21T14:05:21;15.90;99.90
20143;DHT22;10509;46.476;7.134;2023-02-21T14:08:00;15.80;99.90
20143;DHT22;10509;46.476;7.134;2023-02-21T14:10:38;15.70;99.90
20143;DHT22;10509;46.476;7.134;2023-02-21T14:13:16;15.50;99.90
20143;DHT22;10509;46.476;7.134;2023-02-21T14:15:44;15.50;99.90
20143;DHT22;10509;46.476;7.134;2023-02-21T14:18:17;15.30;99.90
20143;DHT22;10509;46.476;7.134;2023-02-21T14:20:47;15.30;99.90
20143;DHT22;10509;46.476;7.134;2023-02-21T14:23:16;15.30;99.90
20143;DHT22;10509;46.476;7.134;2023-02-21T14:25:54;15.40;99.90
20143;DHT22;10509;46.476;7.134;2023-02-21T14:34:19;15.30;99.90
20143;DHT22;10509;46.476;7.134;2023-02-21T14:36:45;15.20;99.90
20143;DHT22;10509;46.476;7.134;2023-02-21T14:39:14;15.10;99.90
20143;DHT22;10509;46.476;7.134;2023-02-21T14:44:37;15.20;99.90
20143;DHT22;10509;46.476;7.134;2023-02-21T15:03:18;15.30;99.90
20143;DHT22;10509;46.476;7.134;2023-02-21T15:06:06;15.30;99.90
20143;DHT22;10509;46.476;7.134;2023-02-21T15:08:46;15.30;99.90
20143;DHT22;10509;46.476;7.134;2023-02-21T15:11:31;15.30;99.90
20143;DHT22;10509;46.476;7.134;2023-02-21T15:14:21;15.40;99.90
20143;DHT22;10509;46.476;7.134;2023-02-21T15:16:54;15.20;99.90
20143;DHT22;10509;46.476;7.134;2023-02-21T15:19:32;15.10;99.90
20143;DHT22;10509;46.476;7.134;2023-02-21T15:22:16;15.10;99.90
20143;DHT22;10509;46.476;7.134;2023-02-21T15:30:28;15.00;99.90
20143;DHT22;10509;46.476;7.134;2023-02-21T15:35:31;15.00;99.90
20143;DHT22;10509;46.476;7.134;2023-02-21T15:38:00;14.80;99.90
20143;DHT22;10509;46.476;7.134;2023-02-21T15:40:27;14.80;99.90
20143;DHT22;10509;46.476;7.134;2023-02-21T15:42:54;14.70;99.90
20143;DHT22;10509;46.476;7.134;2023-02-21T15:45:24;14.70;99.90
20143;DHT22;10509;46.476;7.134;2023-02-21T15:47:51;14.60;99.90
20143;DHT22;10509;46.476;7.134;2023-02-21T15:50:38;14.50;99.90
20143;DHT22;10509;46.476;7.134;2023-02-21T15:55:37;14.30;99.90
20143;DHT22;10509;46.476;7.134;2023-02-21T16:03:36;14.30;99.90
20143;DHT22;10509;46.476;7.134;2023-02-21T16:06:21;14.30;99.90
20143;DHT22;10509;46.476;7.134;2023-02-21T16:08:58;14.40;99.90
20143;DHT22;10509;46.476;7.134;2023-02-21T16:14:21;14.40;99.90
20143;DHT22;10509;46.476;7.134;2023-02-21T16:16:49;14.40;99.90
20143;DHT22;10509;46.476;7.134;2023-02-21T16:19:22;14.20;99.90
20143;DHT22;10509;46.476;7.134;2023-02-21T16:21:48;13.90;99.90
20143;DHT22;10509;46.476;7.134;2023-02-21T16:24:31;13.80;99.90
20143;DHT22;10509;46.476;7.134;2023-02-21T16:27:11;13.60;99.90
20143;DHT22;10509;46.476;7.134;2023-02-21T16:29:38;13.60;99.90
20143;DHT22;10509;46.476;7.134;2023-02-21T16:32:04;13.60;99.90
20143;DHT22;10509;46.476;7.134;2023-02-21T16:34:32;13.50;99.90
20143;DHT22;10509;46.476;7.134;2023-02-21T16:37:03;13.40;99.90
20143;DHT22;10509;46.476;7.134;2023-02-21T16:39:29;13.20;99.90
20143;DHT22;10509;46.476;7.134;2023-02-21T16:41:56;13.10;99.90
20143;DHT22;10509;46.476;7.134;2023-02-21T16:44:22;13.10;99.90
20143;DHT22;10509;46.476;7.134;2023-02-21T16:46:50;13.00;99.90
20143;DHT22;10509;46.476;7.134;2023-02-21T16:49:16;13.00;99.90
20143;DHT22;10509;46.476;7.134;2023-02-21T16:51:42;12.90;99.90
20143;DHT22;10509;46.476;7.134;2023-02-21T16:54:08;12.70;99.90
20143;DHT22;10509;46.476;7.134;2023-02-21T16:56:36;12.40;99.90
20143;DHT22;10509;46.476;7.134;2023-02-21T16:59:09;12.00;99.90
20143;DHT22;10509;46.476;7.134;2023-02-21T17:01:35;11.80;99.90
20143;DHT22;10509;46.476;7.134;2023-02-21T17:04:02;11.70;99.90
20143;DHT22;10509;46.476;7.134;2023-02-21T17:06:30;11.60;99.90
20143;DHT22;10509;46.476;7.134;2023-02-21T17:56:23;9.90;99.90
20143;DHT22;10509;46.476;7.134;2023-02-21T17:58:49;9.90;99.90
20143;DHT22;10509;46.476;7.134;2023-02-21T18:01:18;9.90;99.90
20143;DHT22;10509;46.476;7.134;2023-02-21T18:03:47;9.90;99.90
20143;DHT22;10509;46.476;7.134;2023-02-21T18:06:14;9.70;99.90
20143;DHT22;10509;46.476;7.134;2023-02-21T18:08:40;9.50;99.90
20143;DHT22;10509;46.476;7.134;2023-02-21T18:11:09;9.50;99.90
20143;DHT22;10509;46.476;7.134;2023-02-21T18:13:35;9.20;99.90
20143;DHT22;10509;46.476;7.134;2023-02-21T18:16:01;9.00;99.90
20143;DHT22;10509;46.476;7.134;2023-02-21T18:18:30;9.00;99.90
20143;DHT22;10509;46.476;7.134;2023-02-21T18:20:55;9.10;99.90
20143;DHT22;10509;46.476;7.134;2023-02-21T18:23:23;9.00;99.90
20143;DHT22;10509;46.476;7.134;2023-02-21T18:25:48;9.00;99.90
20143;DHT22;10509;46.476;7.134;2023-02-21T18:28:14;9.10;99.90
20143;DHT22;10509;46.476;7.134;2023-02-21T18:30:39;9.10;99.90
20143;DHT22;10509;46.476;7.134;2023-02-21T18:33:06;9.20;99.90
20143;DHT22;10509;46.476;7.134;2023-02-21T18:35:31;9.20;99.90
20143;DHT22;10509;46.476;7.134;2023-02-21T18:37:57;9.20;99.90
20143;DHT22;10509;46.476;7.134;2023-02-21T18:40:23;9.00;99.90
20143;DHT22;10509;46.476;7.134;2023-02-21T18:43:04;8.90;99.90
20143;DHT22;10509;46.476;7.134;2023-02-21T18:45:31;8.90;99.90
20143;DHT22;10509;46.476;7.134;2023-02-21T18:48:00;8.80;99.90
20143;DHT22;10509;46.476;7.134;2023-02-21T18:50:26;8.70;99.90
20143;DHT22;10509;46.476;7.134;2023-02-21T18:52:52;8.60;99.90
20143;DHT22;10509;46.476;7.134;2023-02-21T18:55:17;8.60;99.90
20143;DHT22;10509;46.476;7.134;2023-02-21T18:57:45;8.50;99.90
20143;DHT22;10509;46.476;7.134;2023-02-21T19:00:16;8.50;99.90
20143;DHT22;10509;46.476;7.134;2023-02-21T19:02:42;8.50;99.90
20143;DHT22;10509;46.476;7.134;2023-02-21T19:05:17;8.50;99.90
20143;DHT22;10509;46.476;7.134;2023-02-21T19:07:44;8.40;99.90
20143;DHT22;10509;46.476;7.134;2023-02-21T19:10:12;8.40;99.90
20143;DHT22;10509;46.476;7.134;2023-02-21T19:12:40;8.40;99.90
20143;DHT22;10509;46.476;7.134;2023-02-21T19:15:06;8.40;99.90
20143;DHT22;10509;46.476;7.134;2023-02-21T19:17:32;8.40;99.90
20143;DHT22;10509;46.476;7.134;2023-02-21T19:19:59;8.30;99.90
20143;DHT22;10509;46.476;7.134;2023-02-21T19:22:24;8.20;99.90
20143;DHT22;10509;46.476;7.134;2023-02-21T19:24:50;8.20;99.90
20143;DHT22;10509;46.476;7.134;2023-02-21T19:27:16;8.40;99.90
20143;DHT22;10509;46.476;7.134;2023-02-21T19:29:42;8.70;99.90
20143;DHT22;10509;46.476;7.134;2023-02-21T19:32:08;8.90;99.90
20143;DHT22;10509;46.476;7.134;2023-02-21T19:34:35;9.10;99.90
20143;DHT22;10509;46.476;7.134;2023-02-21T19:37:01;9.30;99.90
20143;DHT22;10509;46.476;7.134;2023-02-21T19:39:26;9.40;99.90
20143;DHT22;10509;46.476;7.134;2023-02-21T19:41:52;9.50;99.90
20143;DHT22;10509;46.476;7.134;2023-02-21T19:44:18;9.60;99.90
20143;DHT22;10509;46.476;7.134;2023-02-21T19:46:43;9.70;99.90
20143;DHT22;10509;46.476;7.134;2023-02-21T19:49:10;9.70;99.90
20143;DHT22;10509;46.476;7.134;2023-02-21T19:51:44;9.70;99.90
20143;DHT22;10509;46.476;7.134;2023-02-21T19:54:11;9.80;99.90
20143;DHT22;10509;46.476;7.134;2023-02-21T19:56:37;9.80;99.90
20143;DHT22;10509;46.476;7.134;2023-02-21T19:59:03;9.80;99.90
20143;DHT22;10509;46.476;7.134;2023-02-21T20:01:29;9.80;99.90
20143;DHT22;10509;46.476;7.134;2023-02-21T20:04:00;9.80;99.90
20143;DHT22;10509;46.476;7.134;2023-02-21T20:06:26;9.90;99.90
20143;DHT22;10509;46.476;7.134;2023-02-21T20:08:53;9.90;99.90
20143;DHT22;10509;46.476;7.134;2023-02-21T20:11:21;9.90;99.90
20143;DHT22;10509;46.476;7.134;2023-02-21T20:13:48;9.80;99.90
20143;DHT22;10509;46.476;7.134;2023-02-21T20:16:15;9.80;99.90
20143;DHT22;10509;46.476;7.134;2023-02-21T20:18:42;9.80;99.90
20143;DHT22;10509;46.476;7.134;2023-02-21T20:21:09;9.70;99.90
20143;DHT22;10509;46.476;7.134;2023-02-21T20:23:34;9.70;99.90
20143;DHT22;10509;46.476;7.134;2023-02-21T20:26:00;9.60;99.90
20143;DHT22;10509;46.476;7.134;2023-02-21T20:28:26;9.60;99.90
20143;DHT22;10509;46.476;7.134;2023-02-21T20:30:51;9.60;99.90
20143;DHT22;10509;46.476;7.134;2023-02-21T20:33:17;9.70;99.90
20143;DHT22;10509;46.476;7.134;2023-02-21T20:35:45;9.70;99.90
20143;DHT22;10509;46.476;7.134;2023-02-21T20:38:12;9.70;99.90
20143;DHT22;10509;46.476;7.134;2023-02-21T20:40:38;9.60;99.90
20143;DHT22;10509;46.476;7.134;2023-02-21T20:43:04;9.60;99.90
20143;DHT22;10509;46.476;7.134;2023-02-21T20:45:30;9.60;99.90
20143;DHT22;10509;46.476;7.134;2023-02-21T20:47:56;9.60;99.90
20143;DHT22;10509;46.476;7.134;2023-02-21T20:50:23;9.60;99.90
20143;DHT22;10509;46.476;7.134;2023-02-21T20:52:49;9.60;99.90
20143;DHT22;10509;46.476;7.134;2023-02-21T20:55:15;9.50;99.90
20143;DHT22;10509;46.476;7.134;2023-02-21T20:57:43;9.40;99.90
20143;DHT22;10509;46.476;7.134;2023-02-21T21:00:11;9.40;99.90
20143;DHT22;10509;46.476;7.134;2023-02-21T21:02:37;9.30;99.90
20143;DHT22;10509;46.476;7.134;2023-02-21T21:05:04;9.20;99.90
20143;DHT22;10509;46.476;7.134;2023-02-21T21:07:38;9.20;99.90
20143;DHT22;10509;46.476;7.134;2023-02-21T21:10:05;9.20;99.90
20143;DHT22;10509;46.476;7.134;2023-02-21T21:12:34;9.20;99.90
20143;DHT22;10509;46.476;7.134;2023-02-21T21:15:00;9.20;99.90
20143;DHT22;10509;46.476;7.134;2023-02-21T21:17:26;9.10;99.90
20143;DHT22;10509;46.476;7.134;2023-02-21T21:19:52;9.00;99.90
20143;DHT22;10509;46.476;7.134;2023-02-21T21:22:23;9.00;99.90
20143;DHT22;10509;46.476;7.134;2023-02-21T21:24:50;8.90;99.90
20143;DHT22;10509;46.476;7.134;2023-02-21T21:27:16;8.70;99.90
20143;DHT22;10509;46.476;7.134;2023-02-21T21:29:44;8.70;99.90
20143;DHT22;10509;46.476;7.134;2023-02-21T21:32:11;8.60;99.90
20143;DHT22;10509;46.476;7.134;2023-02-21T21:34:38;8.60;99.90
20143;DHT22;10509;46.476;7.134;2023-02-21T21:37:08;8.60;99.90
20143;DHT22;10509;46.476;7.134;2023-02-21T21:39:34;8.60;99.90
20143;DHT22;10509;46.476;7.134;2023-02-21T21:42:04;8.60;99.90
20143;DHT22;10509;46.476;7.134;2023-02-21T21:44:35;8.60;99.90
20143;DHT22;10509;46.476;7.134;2023-02-21T21:47:02;8.60;99.90
20143;DHT22;10509;46.476;7.134;2023-02-21T21:49:29;8.50;99.90
20143;DHT22;10509;46.476;7.134;2023-02-21T21:51:57;8.50;99.90
20143;DHT22;10509;46.476;7.134;2023-02-21T21:54:25;8.50;99.90
20143;DHT22;10509;46.476;7.134;2023-02-21T21:56:53;8.50;99.90
20143;DHT22;10509;46.476;7.134;2023-02-21T21:59:20;8.40;99.90
20143;DHT22;10509;46.476;7.134;2023-02-21T22:01:51;8.40;99.90
20143;DHT22;10509;46.476;7.134;2023-02-21T22:04:23;8.40;99.90
20143;DHT22;10509;46.476;7.134;2023-02-21T22:06:51;8.50;99.90
20143;DHT22;10509;46.476;7.134;2023-02-21T22:09:17;8.40;99.90
20143;DHT22;10509;46.476;7.134;2023-02-21T22:11:46;8.40;99.90
20143;DHT22;10509;46.476;7.134;2023-02-21T22:14:14;8.30;99.90
20143;DHT22;10509;46.476;7.134;2023-02-21T22:16:42;8.30;99.90
20143;DHT22;10509;46.476;7.134;2023-02-21T22:19:09;8.40;99.90
20143;DHT22;10509;46.476;7.134;2023-02-21T22:21:35;8.40;99.90
20143;DHT22;10509;46.476;7.134;2023-02-21T22:24:02;8.40;99.90
20143;DHT22;10509;46.476;7.134;2023-02-21T22:26:30;8.30;99.90
20143;DHT22;10509;46.476;7.134;2023-02-21T22:28:56;8.30;99.90
20143;DHT22;10509;46.476;7.134;2023-02-21T22:31:30;8.30;99.90
20143;DHT22;10509;46.476;7.134;2023-02-21T22:33:56;8.20;99.90
20143;DHT22;10509;46.476;7.134;2023-02-21T22:36:27;8.10;99.90
20143;DHT22;10509;46.476;7.134;2023-02-21T22:38:53;8.10;99.90
20143;DHT22;10509;46.476;7.134;2023-02-21T22:41:26;8.00;99.90
20143;DHT22;10509;46.476;7.134;2023-02-21T22:43:53;7.90;99.90
20143;DHT22;10509;46.476;7.134;2023-02-21T22:46:22;7.90;99.90
20143;DHT22;10509;46.476;7.134;2023-02-21T22:48:48;7.90;99.90
20143;DHT22;10509;46.476;7.134;2023-02-21T22:51:15;7.90;99.90
20143;DHT22;10509;46.476;7.134;2023-02-21T22:53:41;7.90;99.90
20143;DHT22;10509;46.476;7.134;2023-02-21T22:56:15;7.90;99.90
20143;DHT22;10509;46.476;7.134;2023-02-21T22:58:41;7.80;99.90
20143;DHT22;10509;46.476;7.134;2023-02-21T23:01:07;7.80;99.90
20143;DHT22;10509;46.476;7.134;2023-02-21T23:03:33;7.80;99.90
20143;DHT22;10509;46.476;7.134;2023-02-21T23:05:59;7.80;99.90
20143;DHT22;10509;46.476;7.134;2023-02-21T23:08:27;7.80;99.90
20143;DHT22;10509;46.476;7.134;2023-02-21T23:10:54;7.80;99.90
20143;DHT22;10509;46.476;7.134;2023-02-21T23:13:22;7.80;99.90
20143;DHT22;10509;46.476;7.134;2023-02-21T23:15:49;7.80;99.90
20143;DHT22;10509;46.476;7.134;2023-02-21T23:18:17;7.80;99.90
20143;DHT22;10509;46.476;7.134;2023-02-21T23:20:55;7.80;99.90
20143;DHT22;10509;46.476;7.134;2023-02-21T23:23:24;7.80;99.90
20143;DHT22;10509;46.476;7.134;2023-02-21T23:25:52;7.70;99.90
20143;DHT22;10509;46.476;7.134;2023-02-21T23:28:18;7.80;99.90
20143;DHT22;10509;46.476;7.134;2023-02-21T23:30:44;7.80;99.90
20143;DHT22;10509;46.476;7.134;2023-02-21T23:33:19;7.70;99.90
20143;DHT22;10509;46.476;7.134;2023-02-21T23:35:49;7.70;99.90
20143;DHT22;10509;46.476;7.134;2023-02-21T23:38:16;7.80;99.90
20143;DHT22;10509;46.476;7.134;2023-02-21T23:41:01;7.80;99.90
20143;DHT22;10509;46.476;7.134;2023-02-21T23:43:29;7.80;99.90
20143;DHT22;10509;46.476;7.134;2023-02-21T23:45:56;7.70;99.90
20143;DHT22;10509;46.476;7.134;2023-02-21T23:48:22;7.60;99.90
20143;DHT22;10509;46.476;7.134;2023-02-21T23:50:49;7.60;99.90
20143;DHT22;10509;46.476;7.134;2023-02-21T23:53:18;7.50;99.90
20143;DHT22;10509;46.476;7.134;2023-02-21T23:55:45;7.50;99.90
20143;DHT22;10509;46.476;7.134;2023-02-21T23:58:17;7.50;99.90
